sensor_id;sensor_type;location;lat;lon;timestamp;P1;durP1;ratioP1;P2;durP2;ratioP2
12970;SDS011;6550;48.650;8.774;2023-05-10T00:00:03;0.40;;;0.35;;
12970;SDS011;6550;48.650;8.774;2023-05-10T00:02:30;0.93;;;0.30;;
12970;SDS011;6550;48.650;8.774;2023-05-10T00:04:57;0.43;;;0.30;;
12970;SDS011;6550;48.650;8.774;2023-05-10T00:07:24;0.57;;;0.30;;
12970;SDS011;6550;48.650;8.774;2023-05-10T00:09:51;0.37;;;0.37;;
12970;SDS011;6550;48.650;8.774;2023-05-10T00:12:18;0.53;;;0.30;;
12970;SDS011;6550;48.650;8.774;2023-05-10T00:14:44;0.67;;;0.30;;
12970;SDS011;6550;48.650;8.774;2023-05-10T00:17:11;1.80;;;0.37;;
12970;SDS011;6550;48.650;8.774;2023-05-10T00:19:38;1.23;;;0.30;;
12970;SDS011;6550;48.650;8.774;2023-05-10T00:22:04;0.43;;;0.30;;
12970;SDS011;6550;48.650;8.774;2023-05-10T00:24:31;0.37;;;0.27;;
12970;SDS011;6550;48.650;8.774;2023-05-10T00:26:58;1.50;;;0.40;;
12970;SDS011;6550;48.650;8.774;2023-05-10T00:29:26;0.50;;;0.13;;
12970;SDS011;6550;48.650;8.774;2023-05-10T00:31:54;0.13;;;0.13;;
12970;SDS011;6550;48.650;8.774;2023-05-10T00:34:21;0.10;;;0.10;;
12970;SDS011;6550;48.650;8.774;2023-05-10T00:36:48;0.07;;;0.07;;
12970;SDS011;6550;48.650;8.774;2023-05-10T00:39:17;1.90;;;0.10;;
12970;SDS011;6550;48.650;8.774;2023-05-10T00:41:45;1.33;;;0.10;;
12970;SDS011;6550;48.650;8.774;2023-05-10T00:44:14;1.07;;;0.10;;
12970;SDS011;6550;48.650;8.774;2023-05-10T00:46:41;1.35;;;0.17;;
12970;SDS011;6550;48.650;8.774;2023-05-10T00:49:13;0.10;;;0.10;;
12970;SDS011;6550;48.650;8.774;2023-05-10T00:51:39;2.23;;;0.10;;
12970;SDS011;6550;48.650;8.774;2023-05-10T00:54:11;0.10;;;0.10;;
12970;SDS011;6550;48.650;8.774;2023-05-10T00:56:41;1.20;;;0.10;;
12970;SDS011;6550;48.650;8.774;2023-05-10T00:59:17;2.65;;;0.30;;
12970;SDS011;6550;48.650;8.774;2023-05-10T01:01:47;2.30;;;0.10;;
12970;SDS011;6550;48.650;8.774;2023-05-10T01:04:14;0.20;;;0.10;;
12970;SDS011;6550;48.650;8.774;2023-05-10T01:06:41;0.00;;;0.00;;
12970;SDS011;6550;48.650;8.774;2023-05-10T01:09:09;0.90;;;0.10;;
12970;SDS011;6550;48.650;8.774;2023-05-10T01:11:38;0.00;;;0.00;;
12970;SDS011;6550;48.650;8.774;2023-05-10T01:14:07;1.13;;;0.20;;
12970;SDS011;6550;48.650;8.774;2023-05-10T01:16:36;0.00;;;0.00;;
12970;SDS011;6550;48.650;8.774;2023-05-10T01:19:10;1.70;;;0.13;;
12970;SDS011;6550;48.650;8.774;2023-05-10T01:22:00;0.20;;;0.20;;
12970;SDS011;6550;48.650;8.774;2023-05-10T01:36:04;0.73;;;0.33;;
12970;SDS011;6550;48.650;8.774;2023-05-10T01:38:38;0.53;;;0.10;;
12970;SDS011;6550;48.650;8.774;2023-05-10T01:46:37;1.30;;;0.20;;
12970;SDS011;6550;48.650;8.774;2023-05-10T01:49:10;0.30;;;0.10;;
12970;SDS011;6550;48.650;8.774;2023-05-10T01:51:53;0.10;;;0.10;;
12970;SDS011;6550;48.650;8.774;2023-05-10T01:54:25;0.37;;;0.10;;
12970;SDS011;6550;48.650;8.774;2023-05-10T01:57:01;0.10;;;0.10;;
12970;SDS011;6550;48.650;8.774;2023-05-10T01:59:34;1.80;;;0.30;;
12970;SDS011;6550;48.650;8.774;2023-05-10T02:02:03;0.10;;;0.10;;
12970;SDS011;6550;48.650;8.774;2023-05-10T02:04:38;0.83;;;0.10;;
12970;SDS011;6550;48.650;8.774;2023-05-10T02:07:08;2.10;;;0.10;;
12970;SDS011;6550;48.650;8.774;2023-05-10T02:09:35;0.93;;;0.10;;
12970;SDS011;6550;48.650;8.774;2023-05-10T02:12:05;0.27;;;0.10;;
12970;SDS011;6550;48.650;8.774;2023-05-10T02:14:35;1.20;;;0.20;;
12970;SDS011;6550;48.650;8.774;2023-05-10T02:17:05;0.30;;;0.20;;
12970;SDS011;6550;48.650;8.774;2023-05-10T02:19:34;0.80;;;0.10;;
12970;SDS011;6550;48.650;8.774;2023-05-10T02:22:06;0.20;;;0.20;;
12970;SDS011;6550;48.650;8.774;2023-05-10T02:24:37;0.37;;;0.20;;
12970;SDS011;6550;48.650;8.774;2023-05-10T02:27:07;0.15;;;0.10;;
12970;SDS011;6550;48.650;8.774;2023-05-10T02:29:35;1.73;;;0.40;;
12970;SDS011;6550;48.650;8.774;2023-05-10T02:32:03;0.10;;;0.10;;
12970;SDS011;6550;48.650;8.774;2023-05-10T02:34:32;2.07;;;0.40;;
12970;SDS011;6550;48.650;8.774;2023-05-10T02:37:02;1.43;;;0.20;;
12970;SDS011;6550;48.650;8.774;2023-05-10T02:39:29;0.30;;;0.27;;
12970;SDS011;6550;48.650;8.774;2023-05-10T02:41:58;2.80;;;0.30;;
12970;SDS011;6550;48.650;8.774;2023-05-10T02:44:26;0.20;;;0.20;;
12970;SDS011;6550;48.650;8.774;2023-05-10T02:46:57;0.27;;;0.27;;
12970;SDS011;6550;48.650;8.774;2023-05-10T02:49:24;0.77;;;0.37;;
12970;SDS011;6550;48.650;8.774;2023-05-10T02:51:53;1.60;;;0.20;;
12970;SDS011;6550;48.650;8.774;2023-05-10T02:54:27;4.70;;;0.20;;
12970;SDS011;6550;48.650;8.774;2023-05-10T02:57:00;1.38;;;0.40;;
12970;SDS011;6550;48.650;8.774;2023-05-10T02:59:31;1.30;;;0.17;;
12970;SDS011;6550;48.650;8.774;2023-05-10T03:01:59;0.10;;;0.10;;
12970;SDS011;6550;48.650;8.774;2023-05-10T03:04:26;1.40;;;0.20;;
12970;SDS011;6550;48.650;8.774;2023-05-10T03:06:55;0.10;;;0.10;;
12970;SDS011;6550;48.650;8.774;2023-05-10T03:09:22;0.20;;;0.20;;
12970;SDS011;6550;48.650;8.774;2023-05-10T03:17:35;0.77;;;0.30;;
12970;SDS011;6550;48.650;8.774;2023-05-10T03:20:24;0.20;;;0.20;;
12970;SDS011;6550;48.650;8.774;2023-05-10T03:22:54;0.47;;;0.27;;
12970;SDS011;6550;48.650;8.774;2023-05-10T03:25:26;0.38;;;0.30;;
12970;SDS011;6550;48.650;8.774;2023-05-10T03:28:01;0.63;;;0.23;;
12970;SDS011;6550;48.650;8.774;2023-05-10T03:30:32;1.50;;;0.30;;
12970;SDS011;6550;48.650;8.774;2023-05-10T03:33:06;0.30;;;0.30;;
12970;SDS011;6550;48.650;8.774;2023-05-10T03:35:33;0.50;;;0.50;;
12970;SDS011;6550;48.650;8.774;2023-05-10T03:38:02;2.80;;;0.60;;
12970;SDS011;6550;48.650;8.774;2023-05-10T03:40:29;0.30;;;0.30;;
12970;SDS011;6550;48.650;8.774;2023-05-10T03:42:58;0.50;;;0.50;;
12970;SDS011;6550;48.650;8.774;2023-05-10T03:45:25;0.70;;;0.50;;
12970;SDS011;6550;48.650;8.774;2023-05-10T03:47:52;0.43;;;0.30;;
12970;SDS011;6550;48.650;8.774;2023-05-10T03:50:20;0.30;;;0.30;;
12970;SDS011;6550;48.650;8.774;2023-05-10T03:52:47;1.67;;;0.43;;
12970;SDS011;6550;48.650;8.774;2023-05-10T03:55:14;0.73;;;0.70;;
12970;SDS011;6550;48.650;8.774;2023-05-10T03:57:41;0.93;;;0.50;;
12970;SDS011;6550;48.650;8.774;2023-05-10T04:00:08;1.77;;;0.50;;
12970;SDS011;6550;48.650;8.774;2023-05-10T04:02:35;2.23;;;0.40;;
12970;SDS011;6550;48.650;8.774;2023-05-10T04:05:06;0.97;;;0.43;;
12970;SDS011;6550;48.650;8.774;2023-05-10T04:07:33;0.43;;;0.40;;
12970;SDS011;6550;48.650;8.774;2023-05-10T04:10:04;1.60;;;0.73;;
12970;SDS011;6550;48.650;8.774;2023-05-10T04:12:31;1.10;;;0.40;;
12970;SDS011;6550;48.650;8.774;2023-05-10T04:14:58;1.63;;;0.57;;
12970;SDS011;6550;48.650;8.774;2023-05-10T04:17:26;0.57;;;0.47;;
12970;SDS011;6550;48.650;8.774;2023-05-10T04:19:53;0.20;;;0.20;;
12970;SDS011;6550;48.650;8.774;2023-05-10T04:22:22;0.93;;;0.57;;
12970;SDS011;6550;48.650;8.774;2023-05-10T04:24:48;0.73;;;0.60;;
12970;SDS011;6550;48.650;8.774;2023-05-10T04:27:17;0.75;;;0.40;;
12970;SDS011;6550;48.650;8.774;2023-05-10T04:29:44;2.33;;;0.40;;
12970;SDS011;6550;48.650;8.774;2023-05-10T04:32:11;1.03;;;0.57;;
12970;SDS011;6550;48.650;8.774;2023-05-10T04:34:37;0.30;;;0.30;;
12970;SDS011;6550;48.650;8.774;2023-05-10T04:37:07;0.40;;;0.37;;
12970;SDS011;6550;48.650;8.774;2023-05-10T04:39:35;0.70;;;0.70;;
12970;SDS011;6550;48.650;8.774;2023-05-10T04:42:04;2.30;;;0.50;;
12970;SDS011;6550;48.650;8.774;2023-05-10T04:44:33;0.70;;;0.57;;
12970;SDS011;6550;48.650;8.774;2023-05-10T04:47:00;0.60;;;0.60;;
12970;SDS011;6550;48.650;8.774;2023-05-10T04:49:28;0.50;;;0.50;;
12970;SDS011;6550;48.650;8.774;2023-05-10T04:51:55;1.17;;;0.60;;
12970;SDS011;6550;48.650;8.774;2023-05-10T04:54:24;0.33;;;0.33;;
12970;SDS011;6550;48.650;8.774;2023-05-10T04:56:51;0.63;;;0.50;;
12970;SDS011;6550;48.650;8.774;2023-05-10T04:59:20;0.60;;;0.60;;
12970;SDS011;6550;48.650;8.774;2023-05-10T05:01:47;3.10;;;0.83;;
12970;SDS011;6550;48.650;8.774;2023-05-10T05:04:16;4.67;;;0.80;;
12970;SDS011;6550;48.650;8.774;2023-05-10T05:06:45;0.70;;;0.60;;
12970;SDS011;6550;48.650;8.774;2023-05-10T05:09:17;6.30;;;1.10;;
12970;SDS011;6550;48.650;8.774;2023-05-10T05:11:46;1.63;;;0.70;;
12970;SDS011;6550;48.650;8.774;2023-05-10T05:14:13;1.30;;;0.80;;
12970;SDS011;6550;48.650;8.774;2023-05-10T05:16:42;2.57;;;0.70;;
12970;SDS011;6550;48.650;8.774;2023-05-10T05:19:11;0.60;;;0.60;;
12970;SDS011;6550;48.650;8.774;2023-05-10T05:21:45;0.57;;;0.57;;
12970;SDS011;6550;48.650;8.774;2023-05-10T05:24:12;2.77;;;0.93;;
12970;SDS011;6550;48.650;8.774;2023-05-10T05:26:41;1.83;;;0.70;;
12970;SDS011;6550;48.650;8.774;2023-05-10T05:29:08;0.90;;;0.50;;
12970;SDS011;6550;48.650;8.774;2023-05-10T05:31:35;0.70;;;0.70;;
12970;SDS011;6550;48.650;8.774;2023-05-10T05:34:06;0.63;;;0.63;;
12970;SDS011;6550;48.650;8.774;2023-05-10T05:36:35;1.00;;;0.80;;
12970;SDS011;6550;48.650;8.774;2023-05-10T05:39:04;0.70;;;0.67;;
12970;SDS011;6550;48.650;8.774;2023-05-10T05:41:33;0.80;;;0.67;;
12970;SDS011;6550;48.650;8.774;2023-05-10T05:44:00;0.80;;;0.80;;
12970;SDS011;6550;48.650;8.774;2023-05-10T05:46:29;1.10;;;0.77;;
12970;SDS011;6550;48.650;8.774;2023-05-10T05:48:56;0.83;;;0.70;;
12970;SDS011;6550;48.650;8.774;2023-05-10T05:51:25;2.13;;;1.70;;
12970;SDS011;6550;48.650;8.774;2023-05-10T05:53:52;5.50;;;3.03;;
12970;SDS011;6550;48.650;8.774;2023-05-10T05:56:19;3.65;;;2.60;;
12970;SDS011;6550;48.650;8.774;2023-05-10T05:58:53;3.27;;;1.90;;
12970;SDS011;6550;48.650;8.774;2023-05-10T06:01:19;1.53;;;1.43;;
12970;SDS011;6550;48.650;8.774;2023-05-10T06:03:49;1.73;;;1.40;;
12970;SDS011;6550;48.650;8.774;2023-05-10T06:06:18;1.20;;;1.10;;
12970;SDS011;6550;48.650;8.774;2023-05-10T06:08:47;1.10;;;1.00;;
12970;SDS011;6550;48.650;8.774;2023-05-10T06:11:14;1.33;;;1.07;;
12970;SDS011;6550;48.650;8.774;2023-05-10T06:13:41;3.30;;;1.33;;
12970;SDS011;6550;48.650;8.774;2023-05-10T06:16:08;3.17;;;0.90;;
12970;SDS011;6550;48.650;8.774;2023-05-10T06:18:35;1.10;;;0.80;;
12970;SDS011;6550;48.650;8.774;2023-05-10T06:21:02;1.30;;;0.67;;
12970;SDS011;6550;48.650;8.774;2023-05-10T06:23:31;1.73;;;1.10;;
12970;SDS011;6550;48.650;8.774;2023-05-10T06:25:58;0.83;;;0.67;;
12970;SDS011;6550;48.650;8.774;2023-05-10T06:28:25;2.73;;;0.90;;
12970;SDS011;6550;48.650;8.774;2023-05-10T06:30:54;3.17;;;0.90;;
12970;SDS011;6550;48.650;8.774;2023-05-10T06:33:21;24.80;;;2.73;;
12970;SDS011;6550;48.650;8.774;2023-05-10T06:35:48;1.67;;;0.90;;
12970;SDS011;6550;48.650;8.774;2023-05-10T06:38:20;2.63;;;1.30;;
12970;SDS011;6550;48.650;8.774;2023-05-10T06:40:49;3.67;;;0.73;;
12970;SDS011;6550;48.650;8.774;2023-05-10T06:43:16;1.33;;;0.87;;
12970;SDS011;6550;48.650;8.774;2023-05-10T06:45:45;1.83;;;1.00;;
12970;SDS011;6550;48.650;8.774;2023-05-10T06:48:13;4.67;;;0.97;;
12970;SDS011;6550;48.650;8.774;2023-05-10T06:50:40;2.53;;;0.93;;
12970;SDS011;6550;48.650;8.774;2023-05-10T06:53:12;0.90;;;0.90;;
12970;SDS011;6550;48.650;8.774;2023-05-10T06:55:39;1.90;;;0.60;;
12970;SDS011;6550;48.650;8.774;2023-05-10T06:58:06;0.80;;;0.80;;
12970;SDS011;6550;48.650;8.774;2023-05-10T07:00:35;2.53;;;1.00;;
12970;SDS011;6550;48.650;8.774;2023-05-10T07:03:05;2.80;;;1.60;;
12970;SDS011;6550;48.650;8.774;2023-05-10T07:05:32;2.23;;;2.00;;
12970;SDS011;6550;48.650;8.774;2023-05-10T07:07:59;1.40;;;1.30;;
12970;SDS011;6550;48.650;8.774;2023-05-10T07:10:26;1.90;;;1.30;;
12970;SDS011;6550;48.650;8.774;2023-05-10T07:12:53;3.80;;;1.63;;
12970;SDS011;6550;48.650;8.774;2023-05-10T07:15:19;4.95;;;1.95;;
12970;SDS011;6550;48.650;8.774;2023-05-10T07:17:46;2.10;;;1.87;;
12970;SDS011;6550;48.650;8.774;2023-05-10T07:20:13;2.13;;;1.90;;
12970;SDS011;6550;48.650;8.774;2023-05-10T07:22:42;2.67;;;1.80;;
12970;SDS011;6550;48.650;8.774;2023-05-10T07:25:09;40.73;;;4.17;;
12970;SDS011;6550;48.650;8.774;2023-05-10T07:27:36;9.13;;;2.90;;
12970;SDS011;6550;48.650;8.774;2023-05-10T07:30:08;171.80;;;10.53;;
12970;SDS011;6550;48.650;8.774;2023-05-10T07:32:35;199.57;;;14.93;;
12970;SDS011;6550;48.650;8.774;2023-05-10T07:35:02;82.30;;;10.03;;
12970;SDS011;6550;48.650;8.774;2023-05-10T07:37:31;87.07;;;8.83;;
12970;SDS011;6550;48.650;8.774;2023-05-10T07:40:01;22.37;;;4.30;;
12970;SDS011;6550;48.650;8.774;2023-05-10T07:42:30;151.77;;;11.30;;
12970;SDS011;6550;48.650;8.774;2023-05-10T07:44:57;47.07;;;5.50;;
12970;SDS011;6550;48.650;8.774;2023-05-10T07:47:24;18.50;;;4.43;;
12970;SDS011;6550;48.650;8.774;2023-05-10T07:49:51;8.63;;;2.60;;
12970;SDS011;6550;48.650;8.774;2023-05-10T07:52:22;4.90;;;1.73;;
12970;SDS011;6550;48.650;8.774;2023-05-10T08:39:55;9.93;;;0.43;;
12970;SDS011;6550;48.650;8.774;2023-05-10T08:42:21;4.00;;;0.40;;
12970;SDS011;6550;48.650;8.774;2023-05-10T08:44:49;0.77;;;0.20;;
12970;SDS011;6550;48.650;8.774;2023-05-10T08:47:17;3.97;;;0.70;;
12970;SDS011;6550;48.650;8.774;2023-05-10T08:49:45;2.77;;;0.30;;
12970;SDS011;6550;48.650;8.774;2023-05-10T08:52:17;1.87;;;0.43;;
12970;SDS011;6550;48.650;8.774;2023-05-10T08:54:44;3.50;;;0.50;;
12970;SDS011;6550;48.650;8.774;2023-05-10T08:57:14;4.63;;;0.20;;
12970;SDS011;6550;48.650;8.774;2023-05-10T08:59:41;3.73;;;0.50;;
12970;SDS011;6550;48.650;8.774;2023-05-10T09:02:08;3.27;;;0.33;;
12970;SDS011;6550;48.650;8.774;2023-05-10T09:04:41;4.07;;;0.40;;
12970;SDS011;6550;48.650;8.774;2023-05-10T09:07:10;0.50;;;0.27;;
12970;SDS011;6550;48.650;8.774;2023-05-10T09:09:38;0.77;;;0.30;;
12970;SDS011;6550;48.650;8.774;2023-05-10T09:12:05;0.40;;;0.30;;
12970;SDS011;6550;48.650;8.774;2023-05-10T09:14:33;0.20;;;0.20;;
12970;SDS011;6550;48.650;8.774;2023-05-10T09:17:01;0.20;;;0.10;;
12970;SDS011;6550;48.650;8.774;2023-05-10T09:19:28;0.47;;;0.30;;
12970;SDS011;6550;48.650;8.774;2023-05-10T09:21:55;1.02;;;0.20;;
12970;SDS011;6550;48.650;8.774;2023-05-10T09:24:26;0.20;;;0.20;;
12970;SDS011;6550;48.650;8.774;2023-05-10T09:26:53;1.33;;;0.30;;
12970;SDS011;6550;48.650;8.774;2023-05-10T09:29:20;0.30;;;0.30;;
12970;SDS011;6550;48.650;8.774;2023-05-10T09:31:51;0.20;;;0.20;;
12970;SDS011;6550;48.650;8.774;2023-05-10T09:34:30;1.40;;;0.23;;
12970;SDS011;6550;48.650;8.774;2023-05-10T09:36:59;0.27;;;0.20;;
12970;SDS011;6550;48.650;8.774;2023-05-10T09:39:31;0.97;;;0.20;;
12970;SDS011;6550;48.650;8.774;2023-05-10T09:42:04;0.20;;;0.20;;
12970;SDS011;6550;48.650;8.774;2023-05-10T09:44:37;0.17;;;0.17;;
12970;SDS011;6550;48.650;8.774;2023-05-10T09:47:04;0.83;;;0.23;;
12970;SDS011;6550;48.650;8.774;2023-05-10T09:49:32;0.20;;;0.20;;
12970;SDS011;6550;48.650;8.774;2023-05-10T09:52:05;0.30;;;0.20;;
12970;SDS011;6550;48.650;8.774;2023-05-10T09:54:33;0.50;;;0.20;;
12970;SDS011;6550;48.650;8.774;2023-05-10T09:57:00;0.47;;;0.20;;
12970;SDS011;6550;48.650;8.774;2023-05-10T09:59:33;0.20;;;0.20;;
12970;SDS011;6550;48.650;8.774;2023-05-10T10:02:03;3.77;;;0.40;;
12970;SDS011;6550;48.650;8.774;2023-05-10T10:04:30;1.07;;;0.33;;
12970;SDS011;6550;48.650;8.774;2023-05-10T10:06:58;0.40;;;0.20;;
12970;SDS011;6550;48.650;8.774;2023-05-10T10:09:30;0.20;;;0.20;;
12970;SDS011;6550;48.650;8.774;2023-05-10T10:11:57;1.67;;;0.20;;
12970;SDS011;6550;48.650;8.774;2023-05-10T10:14:26;0.30;;;0.30;;
12970;SDS011;6550;48.650;8.774;2023-05-10T10:16:54;5.37;;;0.50;;
12970;SDS011;6550;48.650;8.774;2023-05-10T10:19:34;0.67;;;0.30;;
12970;SDS011;6550;48.650;8.774;2023-05-10T10:22:06;1.97;;;0.30;;
12970;SDS011;6550;48.650;8.774;2023-05-10T10:24:33;3.10;;;0.40;;
12970;SDS011;6550;48.650;8.774;2023-05-10T10:27:14;2.77;;;0.37;;
12970;SDS011;6550;48.650;8.774;2023-05-10T10:29:47;0.37;;;0.30;;
12970;SDS011;6550;48.650;8.774;2023-05-10T10:32:29;0.63;;;0.20;;
12970;SDS011;6550;48.650;8.774;2023-05-10T10:35:08;4.00;;;0.77;;
12970;SDS011;6550;48.650;8.774;2023-05-10T10:37:44;0.50;;;0.50;;
12970;SDS011;6550;48.650;8.774;2023-05-10T10:40:22;1.33;;;0.88;;
12970;SDS011;6550;48.650;8.774;2023-05-10T10:48:46;1.00;;;0.90;;
12970;SDS011;6550;48.650;8.774;2023-05-10T10:51:17;1.05;;;0.90;;
12970;SDS011;6550;48.650;8.774;2023-05-10T10:53:44;1.23;;;0.80;;
12970;SDS011;6550;48.650;8.774;2023-05-10T10:56:14;6.47;;;3.53;;
12970;SDS011;6550;48.650;8.774;2023-05-10T10:58:42;2.23;;;1.77;;
12970;SDS011;6550;48.650;8.774;2023-05-10T11:01:17;3.97;;;2.00;;
12970;SDS011;6550;48.650;8.774;2023-05-10T11:06:36;1.70;;;1.50;;
12970;SDS011;6550;48.650;8.774;2023-05-10T11:09:09;2.47;;;1.50;;
12970;SDS011;6550;48.650;8.774;2023-05-10T11:11:53;2.90;;;1.50;;
12970;SDS011;6550;48.650;8.774;2023-05-10T11:14:24;2.60;;;1.60;;
12970;SDS011;6550;48.650;8.774;2023-05-10T11:16:53;0.90;;;0.90;;
12970;SDS011;6550;48.650;8.774;2023-05-10T11:19:20;1.92;;;1.00;;
12970;SDS011;6550;48.650;8.774;2023-05-10T11:24:32;0.93;;;0.50;;
12970;SDS011;6550;48.650;8.774;2023-05-10T11:26:59;1.80;;;0.77;;
12970;SDS011;6550;48.650;8.774;2023-05-10T11:29:29;0.53;;;0.30;;
12970;SDS011;6550;48.650;8.774;2023-05-10T11:31:58;3.70;;;0.60;;
12970;SDS011;6550;48.650;8.774;2023-05-10T11:34:26;2.73;;;0.60;;
12970;SDS011;6550;48.650;8.774;2023-05-10T11:36:54;3.53;;;0.80;;
12970;SDS011;6550;48.650;8.774;2023-05-10T11:39:25;1.00;;;0.70;;
12970;SDS011;6550;48.650;8.774;2023-05-10T11:41:54;1.30;;;0.70;;
12970;SDS011;6550;48.650;8.774;2023-05-10T11:44:21;1.57;;;0.50;;
12970;SDS011;6550;48.650;8.774;2023-05-10T11:46:48;3.43;;;0.63;;
12970;SDS011;6550;48.650;8.774;2023-05-10T11:49:17;1.65;;;0.57;;
12970;SDS011;6550;48.650;8.774;2023-05-10T11:51:44;3.23;;;0.80;;
12970;SDS011;6550;48.650;8.774;2023-05-10T11:54:13;1.07;;;0.90;;
12970;SDS011;6550;48.650;8.774;2023-05-10T11:56:42;2.50;;;0.80;;
12970;SDS011;6550;48.650;8.774;2023-05-10T11:59:09;1.73;;;0.70;;
12970;SDS011;6550;48.650;8.774;2023-05-10T12:01:36;1.27;;;0.80;;
12970;SDS011;6550;48.650;8.774;2023-05-10T12:04:03;1.63;;;0.70;;
12970;SDS011;6550;48.650;8.774;2023-05-10T12:06:31;5.10;;;0.60;;
12970;SDS011;6550;48.650;8.774;2023-05-10T12:09:05;2.73;;;0.80;;
12970;SDS011;6550;48.650;8.774;2023-05-10T12:11:36;1.70;;;0.60;;
12970;SDS011;6550;48.650;8.774;2023-05-10T12:14:11;1.27;;;0.87;;
12970;SDS011;6550;48.650;8.774;2023-05-10T12:16:38;5.40;;;1.50;;
12970;SDS011;6550;48.650;8.774;2023-05-10T12:19:08;0.80;;;0.50;;
12970;SDS011;6550;48.650;8.774;2023-05-10T12:21:39;2.03;;;1.30;;
12970;SDS011;6550;48.650;8.774;2023-05-10T12:24:09;0.43;;;0.43;;
12970;SDS011;6550;48.650;8.774;2023-05-10T12:26:36;1.13;;;0.57;;
12970;SDS011;6550;48.650;8.774;2023-05-10T12:29:13;0.63;;;0.40;;
12970;SDS011;6550;48.650;8.774;2023-05-10T12:31:57;2.03;;;0.60;;
12970;SDS011;6550;48.650;8.774;2023-05-10T12:34:30;1.45;;;0.65;;
12970;SDS011;6550;48.650;8.774;2023-05-10T12:37:01;3.30;;;0.50;;
12970;SDS011;6550;48.650;8.774;2023-05-10T12:39:43;4.17;;;2.00;;
12970;SDS011;6550;48.650;8.774;2023-05-10T12:42:12;3.43;;;1.73;;
12970;SDS011;6550;48.650;8.774;2023-05-10T12:44:39;4.37;;;1.80;;
12970;SDS011;6550;48.650;8.774;2023-05-10T12:47:06;2.57;;;0.70;;
12970;SDS011;6550;48.650;8.774;2023-05-10T12:49:33;1.50;;;0.60;;
12970;SDS011;6550;48.650;8.774;2023-05-10T12:52:00;0.90;;;0.80;;
12970;SDS011;6550;48.650;8.774;2023-05-10T12:54:29;3.37;;;1.70;;
12970;SDS011;6550;48.650;8.774;2023-05-10T12:56:58;1.83;;;0.93;;
12970;SDS011;6550;48.650;8.774;2023-05-10T12:59:25;2.00;;;1.17;;
12970;SDS011;6550;48.650;8.774;2023-05-10T13:01:52;0.73;;;0.60;;
12970;SDS011;6550;48.650;8.774;2023-05-10T13:04:19;2.80;;;0.60;;
12970;SDS011;6550;48.650;8.774;2023-05-10T13:06:46;1.67;;;1.20;;
12970;SDS011;6550;48.650;8.774;2023-05-10T13:09:15;1.30;;;0.60;;
12970;SDS011;6550;48.650;8.774;2023-05-10T13:11:45;1.35;;;0.65;;
12970;SDS011;6550;48.650;8.774;2023-05-10T13:14:13;0.80;;;0.80;;
12970;SDS011;6550;48.650;8.774;2023-05-10T13:16:42;4.33;;;0.80;;
12970;SDS011;6550;48.650;8.774;2023-05-10T13:19:14;4.17;;;0.70;;
12970;SDS011;6550;48.650;8.774;2023-05-10T13:21:42;2.27;;;0.70;;
12970;SDS011;6550;48.650;8.774;2023-05-10T13:24:10;2.53;;;0.47;;
12970;SDS011;6550;48.650;8.774;2023-05-10T13:26:40;1.77;;;1.03;;
12970;SDS011;6550;48.650;8.774;2023-05-10T13:29:09;0.60;;;0.50;;
12970;SDS011;6550;48.650;8.774;2023-05-10T13:31:36;1.33;;;0.60;;
12970;SDS011;6550;48.650;8.774;2023-05-10T13:34:03;2.27;;;0.53;;
12970;SDS011;6550;48.650;8.774;2023-05-10T13:36:31;2.63;;;0.63;;
12970;SDS011;6550;48.650;8.774;2023-05-10T13:38:58;3.33;;;0.70;;
12970;SDS011;6550;48.650;8.774;2023-05-10T13:41:28;1.13;;;0.63;;
12970;SDS011;6550;48.650;8.774;2023-05-10T13:43:57;1.83;;;0.80;;
12970;SDS011;6550;48.650;8.774;2023-05-10T13:46:24;2.83;;;0.60;;
12970;SDS011;6550;48.650;8.774;2023-05-10T13:48:53;0.63;;;0.50;;
12970;SDS011;6550;48.650;8.774;2023-05-10T13:51:20;0.73;;;0.53;;
12970;SDS011;6550;48.650;8.774;2023-05-10T13:53:47;1.92;;;0.70;;
12970;SDS011;6550;48.650;8.774;2023-05-10T13:56:14;3.97;;;0.60;;
12970;SDS011;6550;48.650;8.774;2023-05-10T13:58:41;6.40;;;0.87;;
12970;SDS011;6550;48.650;8.774;2023-05-10T14:01:08;13.97;;;1.03;;
12970;SDS011;6550;48.650;8.774;2023-05-10T14:03:35;16.83;;;1.40;;
12970;SDS011;6550;48.650;8.774;2023-05-10T14:06:04;15.97;;;1.00;;
12970;SDS011;6550;48.650;8.774;2023-05-10T14:08:33;1.40;;;0.40;;
12970;SDS011;6550;48.650;8.774;2023-05-10T14:11:01;1.57;;;0.40;;
12970;SDS011;6550;48.650;8.774;2023-05-10T14:13:28;0.63;;;0.30;;
12970;SDS011;6550;48.650;8.774;2023-05-10T14:15:55;1.27;;;0.60;;
12970;SDS011;6550;48.650;8.774;2023-05-10T14:18:22;3.17;;;0.60;;
12970;SDS011;6550;48.650;8.774;2023-05-10T14:20:52;1.80;;;0.50;;
12970;SDS011;6550;48.650;8.774;2023-05-10T14:23:22;0.20;;;0.20;;
12970;SDS011;6550;48.650;8.774;2023-05-10T14:25:52;0.47;;;0.30;;
12970;SDS011;6550;48.650;8.774;2023-05-10T14:28:18;1.90;;;0.40;;
12970;SDS011;6550;48.650;8.774;2023-05-10T14:30:49;0.43;;;0.30;;
12970;SDS011;6550;48.650;8.774;2023-05-10T14:33:16;2.60;;;0.60;;
12970;SDS011;6550;48.650;8.774;2023-05-10T14:35:46;1.07;;;0.30;;
12970;SDS011;6550;48.650;8.774;2023-05-10T14:38:13;1.07;;;0.30;;
12970;SDS011;6550;48.650;8.774;2023-05-10T14:40:40;0.47;;;0.30;;
12970;SDS011;6550;48.650;8.774;2023-05-10T14:43:08;0.97;;;0.30;;
12970;SDS011;6550;48.650;8.774;2023-05-10T14:45:35;0.83;;;0.30;;
12970;SDS011;6550;48.650;8.774;2023-05-10T14:48:04;0.73;;;0.47;;
12970;SDS011;6550;48.650;8.774;2023-05-10T14:50:37;0.97;;;0.30;;
12970;SDS011;6550;48.650;8.774;2023-05-10T14:53:04;0.93;;;0.40;;
12970;SDS011;6550;48.650;8.774;2023-05-10T14:55:34;0.40;;;0.27;;
12970;SDS011;6550;48.650;8.774;2023-05-10T14:58:01;0.80;;;0.33;;
12970;SDS011;6550;48.650;8.774;2023-05-10T15:00:31;3.23;;;0.40;;
12970;SDS011;6550;48.650;8.774;2023-05-10T15:02:58;3.57;;;0.47;;
12970;SDS011;6550;48.650;8.774;2023-05-10T15:05:28;4.78;;;0.68;;
12970;SDS011;6550;48.650;8.774;2023-05-10T15:07:57;0.83;;;0.53;;
12970;SDS011;6550;48.650;8.774;2023-05-10T15:10:26;0.47;;;0.40;;
12970;SDS011;6550;48.650;8.774;2023-05-10T15:12:57;1.30;;;0.60;;
12970;SDS011;6550;48.650;8.774;2023-05-10T15:15:25;3.70;;;0.60;;
12970;SDS011;6550;48.650;8.774;2023-05-10T15:17:52;1.73;;;1.27;;
12970;SDS011;6550;48.650;8.774;2023-05-10T15:20:18;2.73;;;1.20;;
12970;SDS011;6550;48.650;8.774;2023-05-10T15:22:45;0.77;;;0.60;;
12970;SDS011;6550;48.650;8.774;2023-05-10T15:25:13;1.60;;;0.90;;
12970;SDS011;6550;48.650;8.774;2023-05-10T15:27:41;1.57;;;0.93;;
12970;SDS011;6550;48.650;8.774;2023-05-10T15:30:10;0.63;;;0.63;;
12970;SDS011;6550;48.650;8.774;2023-05-10T15:32:37;3.50;;;1.10;;
12970;SDS011;6550;48.650;8.774;2023-05-10T15:35:08;0.80;;;0.77;;
12970;SDS011;6550;48.650;8.774;2023-05-10T15:37:36;1.95;;;0.85;;
12970;SDS011;6550;48.650;8.774;2023-05-10T15:40:03;1.50;;;0.80;;
12970;SDS011;6550;48.650;8.774;2023-05-10T15:42:33;0.70;;;0.63;;
12970;SDS011;6550;48.650;8.774;2023-05-10T15:45:00;0.50;;;0.50;;
12970;SDS011;6550;48.650;8.774;2023-05-10T15:47:29;0.50;;;0.50;;
12970;SDS011;6550;48.650;8.774;2023-05-10T15:49:56;0.60;;;0.53;;
12970;SDS011;6550;48.650;8.774;2023-05-10T15:52:26;1.13;;;0.70;;
12970;SDS011;6550;48.650;8.774;2023-05-10T15:54:53;0.80;;;0.57;;
12970;SDS011;6550;48.650;8.774;2023-05-10T15:57:20;0.50;;;0.50;;
12970;SDS011;6550;48.650;8.774;2023-05-10T15:59:47;1.77;;;0.53;;
12970;SDS011;6550;48.650;8.774;2023-05-10T16:02:14;0.77;;;0.57;;
12970;SDS011;6550;48.650;8.774;2023-05-10T16:04:42;1.23;;;0.40;;
12970;SDS011;6550;48.650;8.774;2023-05-10T16:07:09;0.63;;;0.40;;
12970;SDS011;6550;48.650;8.774;2023-05-10T16:09:38;0.87;;;0.30;;
12970;SDS011;6550;48.650;8.774;2023-05-10T16:12:06;0.30;;;0.30;;
12970;SDS011;6550;48.650;8.774;2023-05-10T16:14:33;0.30;;;0.30;;
12970;SDS011;6550;48.650;8.774;2023-05-10T16:17:00;2.00;;;0.50;;
12970;SDS011;6550;48.650;8.774;2023-05-10T16:19:30;1.17;;;0.50;;
12970;SDS011;6550;48.650;8.774;2023-05-10T16:21:57;0.60;;;0.30;;
12970;SDS011;6550;48.650;8.774;2023-05-10T16:24:24;0.80;;;0.50;;
12970;SDS011;6550;48.650;8.774;2023-05-10T16:26:51;0.50;;;0.50;;
12970;SDS011;6550;48.650;8.774;2023-05-10T16:29:20;3.20;;;0.70;;